Time;durP1;ratioP1;P1;durP2;ratioP2;P2;SDS_P1;SDS_P2;PMS_P1;PMS_P2;Temp;Humidity;BMP_temperature;BMP_pressure;BME280_temperature;BME280_humidity;BME280_pressure;Samples;Min_cycle;Max_cycle;Signal;HPM_P1;HPM_P2
2022/05/13 04:02:50;;;;;;;38.67;35.87;;;16.50;99.90;;;;;;5661683;23;20492;-75
2022/05/13 04:10:46;;;;;;;38.87;36.23;;;16.50;99.90;;;;;;4944027;29;20496;-75
2022/05/13 04:16:06;;;;;;;38.90;35.90;;;16.50;99.90;;;;;;4933372;29;20500;-75
2022/05/13 04:18:36;;;;;;;39.00;36.10;;;16.50;99.90;;;;;;4933602;29;20469;-76
2022/05/13 04:21:05;;;;;;;38.50;35.83;;;16.50;99.90;;;;;;4933471;29;20548;-77
2022/05/13 04:23:32;;;;;;;38.63;36.23;;;16.40;99.90;;;;;;4933613;29;20540;-76
2022/05/13 04:25:59;;;;;;;38.30;35.80;;;16.50;99.90;;;;;;4933513;29;20453;-76
2022/05/13 04:28:26;;;;;;;36.97;34.37;;;16.50;99.90;;;;;;4932931;29;20453;-77
2022/05/13 04:30:53;;;;;;;36.97;34.37;;;16.60;99.90;;;;;;4933051;29;20497;-77
2022/05/13 04:33:19;;;;;;;37.63;34.90;;;16.70;99.90;;;;;;4932831;29;20461;-76
2022/05/13 04:35:47;;;;;;;35.07;32.60;;;16.70;99.90;;;;;;4933142;29;20457;-75
2022/05/13 04:38:14;;;;;;;37.13;34.83;;;16.80;99.90;;;;;;4932932;29;20484;-75
2022/05/13 04:40:41;;;;;;;34.20;32.10;;;16.80;99.90;;;;;;4932932;29;20453;-75
2022/05/13 04:43:07;;;;;;;34.47;32.37;;;16.90;99.90;;;;;;4933031;29;20528;-75
2022/05/13 04:45:33;;;;;;;33.60;31.47;;;16.80;99.90;;;;;;4933257;29;20963;-76
2022/05/13 04:48:19;;;;;;;32.10;30.03;;;16.90;99.90;;;;;;4933596;29;20596;-77
2022/05/13 04:50:51;;;;;;;34.60;32.13;;;17.10;99.90;;;;;;4933430;29;20528;-77
2022/05/13 04:53:20;;;;;;;32.30;30.33;;;17.30;99.90;;;;;;4933049;29;20563;-77
2022/05/13 04:55:47;;;;;;;29.70;27.77;;;17.20;99.90;;;;;;4932611;29;20493;-77
2022/05/13 04:58:14;;;;;;;29.23;27.33;;;17.20;99.90;;;;;;4933063;29;20508;-75
2022/05/13 05:00:41;;;;;;;28.10;26.50;;;17.40;99.90;;;;;;4932492;29;20496;-75
2022/05/13 05:03:08;;;;;;;27.63;26.10;;;17.50;99.90;;;;;;4932494;29;20544;-76
2022/05/13 05:05:35;;;;;;;28.90;26.77;;;17.60;99.90;;;;;;4932825;29;20465;-75
2022/05/13 05:08:04;;;;;;;28.30;26.60;;;17.60;99.90;;;;;;4932803;29;20548;-76
2022/05/13 05:10:31;;;;;;;28.20;26.40;;;17.70;99.90;;;;;;4935612;29;20588;-79
2022/05/13 05:12:58;;;;;;;29.27;27.40;;;17.70;99.90;;;;;;4950634;29;20472;-83
2022/05/13 05:15:26;;;;;;;28.73;27.07;;;17.70;99.90;;;;;;4951094;29;20461;-84
2022/05/13 05:17:52;;;;;;;29.00;26.70;;;17.70;99.90;;;;;;4950488;29;20801;-84
2022/05/13 05:20:20;;;;;;;27.57;25.70;;;17.70;99.90;;;;;;4952867;29;20453;-85
2022/05/13 05:22:47;;;;;;;27.13;25.00;;;17.70;99.90;;;;;;4952850;29;20472;-85
2022/05/13 05:25:17;;;;;;;28.67;26.67;;;17.70;99.90;;;;;;4951285;28;20548;-86
2022/05/13 05:27:43;;;;;;;28.30;26.20;;;17.80;99.90;;;;;;4952312;29;20862;-86
2022/05/13 05:30:11;;;;;;;25.43;23.73;;;17.90;99.90;;;;;;4952160;29;20946;-87
2022/05/13 05:32:38;;;;;;;25.23;23.40;;;17.90;99.90;;;;;;4951860;29;20448;-86
2022/05/13 05:35:07;;;;;;;26.83;25.03;;;17.90;99.90;;;;;;4951674;29;20452;-86
2022/05/13 05:37:34;;;;;;;26.50;24.10;;;17.80;99.90;;;;;;4952025;29;20527;-84
2022/05/13 05:40:01;;;;;;;26.97;24.80;;;17.70;99.90;;;;;;4951940;29;20864;-83
2022/05/13 05:42:29;;;;;;;26.53;24.73;;;17.70;99.90;;;;;;4951501;29;20950;-84
2022/05/13 05:44:55;;;;;;;24.77;22.97;;;17.90;99.90;;;;;;4951410;29;20515;-83
2022/05/13 05:47:22;;;;;;;24.67;22.90;;;18.10;99.90;;;;;;4951171;29;20512;-80
2022/05/13 05:49:49;;;;;;;24.80;23.20;;;18.20;99.90;;;;;;4951066;29;20491;-76
2022/05/13 05:52:16;;;;;;;24.80;23.10;;;18.20;99.90;;;;;;4951473;29;20496;-83
2022/05/13 05:57:28;;;;;;;23.93;22.10;;;18.40;99.90;;;;;;4949883;29;20435;-78
2022/05/13 05:59:55;;;;;;;22.80;21.30;;;18.40;99.90;;;;;;4951025;29;20459;-78
2022/05/13 06:02:22;;;;;;;21.90;20.17;;;18.40;99.90;;;;;;4950684;28;20476;-78
2022/05/13 06:04:48;;;;;;;22.10;20.37;;;18.20;99.90;;;;;;4950924;29;20519;-77
2022/05/13 06:07:17;;;;;;;23.17;21.70;;;18.20;99.90;;;;;;4951167;29;20456;-77
2022/05/13 06:09:44;;;;;;;27.50;25.43;;;18.20;99.90;;;;;;4951403;29;20460;-77
2022/05/13 06:12:13;;;;;;;27.67;25.63;;;18.20;99.90;;;;;;4951216;28;20496;-76
2022/05/13 06:14:41;;;;;;;25.67;23.87;;;18.10;99.90;;;;;;4954199;29;20460;-76
2022/05/13 06:17:09;;;;;;;25.50;23.60;;;18.00;99.90;;;;;;4954259;29;20511;-76
2022/05/13 06:19:36;;;;;;;22.97;20.80;;;18.10;99.90;;;;;;4954017;29;20813;-77
2022/05/13 06:22:02;;;;;;;22.90;21.20;;;18.30;99.90;;;;;;4954649;29;20460;-77
2022/05/13 06:24:29;;;;;;;21.83;20.07;;;18.40;99.90;;;;;;4954868;29;20453;-76
2022/05/13 06:26:56;;;;;;;22.40;21.10;;;18.50;99.90;;;;;;4954465;29;20467;-77
2022/05/13 06:29:25;;;;;;;22.43;20.50;;;18.70;99.90;;;;;;4954259;29;20868;-76
2022/05/13 06:31:53;;;;;;;20.97;19.77;;;18.60;99.90;;;;;;4953949;29;20488;-77
2022/05/13 06:34:21;;;;;;;23.87;21.53;;;18.60;99.90;;;;;;4954072;29;20456;-77
2022/05/13 06:36:50;;;;;;;23.17;21.10;;;18.70;99.90;;;;;;4954106;28;20667;-77
2022/05/13 06:39:16;;;;;;;22.60;20.87;;;18.90;99.90;;;;;;4954387;29;20465;-77
2022/05/13 06:41:43;;;;;;;22.73;21.07;;;19.20;99.90;;;;;;4954230;29;20869;-77
2022/05/13 06:44:10;;;;;;;21.77;20.00;;;19.40;99.90;;;;;;4954043;29;20463;-78
2022/05/13 06:46:39;;;;;;;22.63;20.70;;;19.70;99.90;;;;;;4953941;29;20495;-78
2022/05/13 06:49:07;;;;;;;21.63;19.73;;;20.10;99.90;;;;;;4954070;29;20472;-78
2022/05/13 06:51:35;;;;;;;25.53;18.80;;;20.30;99.90;;;;;;4953607;29;20485;-79
2022/05/13 06:54:04;;;;;;;20.10;18.70;;;20.50;99.90;;;;;;4954020;29;20460;-76
2022/05/13 06:56:32;;;;;;;19.27;18.10;;;20.70;99.90;;;;;;4953881;29;20457;-79
2022/05/13 06:58:58;;;;;;;21.53;19.50;;;21.00;99.90;;;;;;4953838;29;20464;-81
2022/05/13 07:01:25;;;;;;;17.70;16.53;;;21.20;99.90;;;;;;4953326;28;20555;-78
2022/05/13 07:03:52;;;;;;;17.40;16.40;;;21.00;99.90;;;;;;4951456;28;20593;-78
2022/05/13 07:06:20;;;;;;;17.07;15.90;;;21.10;99.90;;;;;;4953281;29;20460;-78
2022/05/13 07:08:47;;;;;;;17.93;16.67;;;21.00;99.90;;;;;;4953307;29;20820;-77
2022/05/13 07:11:14;;;;;;;16.73;15.90;;;20.90;99.90;;;;;;4953291;29;20503;-78
2022/05/13 07:13:41;;;;;;;16.53;15.70;;;20.60;99.90;;;;;;4953022;29;20468;-78
2022/05/13 07:16:08;;;;;;;16.87;15.90;;;20.50;99.90;;;;;;4953126;29;20456;-78
2022/05/13 07:18:36;;;;;;;16.10;15.27;;;20.20;99.90;;;;;;4953140;29;20457;-78
2022/05/13 07:21:03;;;;;;;16.70;15.37;;;20.00;99.90;;;;;;4953169;29;20461;-78
2022/05/13 07:23:31;;;;;;;16.83;15.83;;;19.90;99.90;;;;;;4952944;28;20508;-78
2022/05/13 07:25:58;;;;;;;16.07;15.27;;;19.90;99.90;;;;;;4953130;29;20568;-78
2022/05/13 07:28:26;;;;;;;17.00;16.00;;;19.70;99.90;;;;;;4952845;28;20556;-78
2022/05/13 07:30:53;;;;;;;16.33;15.43;;;19.80;99.90;;;;;;4952862;29;20707;-78
2022/05/13 07:33:21;;;;;;;16.43;15.50;;;19.80;99.90;;;;;;4952890;29;20857;-78
2022/05/13 07:35:48;;;;;;;16.20;14.97;;;19.80;99.90;;;;;;4953105;29;20528;-78
2022/05/13 07:38:15;;;;;;;17.30;16.00;;;19.80;99.90;;;;;;4953058;29;20452;-77
2022/05/13 07:43:27;;;;;;;15.67;14.43;;;20.00;99.90;;;;;;4953174;29;20456;-77
2022/05/13 07:45:54;;;;;;;15.33;14.53;;;20.10;99.90;;;;;;4952955;29;20453;-77
2022/05/13 07:48:20;;;;;;;17.17;15.77;;;20.30;99.90;;;;;;4952723;29;20460;-77
2022/05/13 07:50:47;;;;;;;16.80;15.20;;;20.50;99.90;;;;;;4952888;29;20461;-76
2022/05/13 07:53:14;;;;;;;15.93;14.73;;;20.60;99.90;;;;;;4952974;29;20492;-76
2022/05/13 07:55:40;;;;;;;15.70;14.77;;;20.80;99.90;;;;;;4952898;29;20862;-76
2022/05/13 07:58:09;;;;;;;15.10;14.10;;;21.00;99.90;;;;;;4952619;29;20873;-76
2022/05/13 08:00:37;;;;;;;15.17;14.10;;;21.30;99.90;;;;;;4952572;28;20555;-76
2022/05/13 08:03:06;;;;;;;15.03;14.17;;;21.30;99.90;;;;;;4952346;28;20527;-77
2022/05/13 08:05:37;;;;;;;14.07;13.43;;;21.30;99.90;;;;;;4952554;29;20644;-76
2022/05/13 08:08:08;;;;;;;14.67;13.43;;;21.20;99.90;;;;;;4952568;29;20464;-76
2022/05/13 08:10:36;;;;;;;13.37;12.57;;;20.90;99.90;;;;;;4952589;29;20868;-77
2022/05/13 08:13:03;;;;;;;13.87;13.17;;;21.00;99.90;;;;;;4952497;29;20492;-76
2022/05/13 08:15:31;;;;;;;13.63;12.90;;;21.10;99.90;;;;;;4952778;29;20452;-77
2022/05/13 08:17:58;;;;;;;14.63;13.80;;;21.30;99.90;;;;;;4952636;29;20457;-78
2022/05/13 08:20:25;;;;;;;14.47;13.47;;;21.50;99.90;;;;;;4952164;29;20452;-78
2022/05/13 08:22:52;;;;;;;14.13;13.43;;;21.70;99.90;;;;;;4952405;29;20826;-78
2022/05/13 08:25:18;;;;;;;14.57;13.57;;;21.90;99.90;;;;;;4952177;29;20448;-79
2022/05/13 08:27:45;;;;;;;14.77;13.80;;;22.00;99.90;;;;;;4952355;29;20460;-79
2022/05/13 08:30:13;;;;;;;17.23;16.20;;;22.30;99.90;;;;;;4952186;29;20445;-81
2022/05/13 08:32:41;;;;;;;14.37;13.57;;;22.30;99.90;;;;;;4951859;29;20499;-80
2022/05/13 08:35:08;;;;;;;14.10;13.13;;;22.70;99.90;;;;;;4951752;28;20465;-79
2022/05/13 08:37:40;;;;;;;14.60;13.60;;;22.80;99.90;;;;;;4951669;28;20463;-79
2022/05/13 08:40:14;;;;;;;13.83;13.10;;;22.60;99.90;;;;;;4952006;29;20456;-79
2022/05/13 08:42:46;;;;;;;13.33;12.60;;;22.30;99.90;;;;;;4952129;29;20457;-78
2022/05/13 08:45:16;;;;;;;14.50;13.70;;;22.30;99.90;;;;;;4952197;29;20510;-79
2022/05/13 08:47:50;;;;;;;13.70;13.00;;;22.10;99.90;;;;;;4952010;29;20448;-78
2022/05/13 08:50:24;;;;;;;14.97;13.87;;;22.70;99.90;;;;;;4952153;29;20455;-79
2022/05/13 08:53:08;;;;;;;14.63;13.53;;;24.20;99.80;;;;;;4951848;29;20488;-79
2022/05/13 08:55:43;;;;;;;14.00;13.10;;;26.10;95.30;;;;;;4951872;29;20460;-79
2022/05/13 08:58:16;;;;;;;14.70;13.80;;;26.90;91.50;;;;;;4951933;28;21079;-78
2022/05/13 09:00:45;;;;;;;14.70;13.70;;;26.90;91.90;;;;;;4952145;28;20456;-79
2022/05/13 09:03:25;;;;;;;14.70;13.80;;;27.20;89.10;;;;;;4951526;29;20480;-78
2022/05/13 09:05:56;;;;;;;15.37;14.10;;;26.80;90.60;;;;;;4951840;29;20459;-78
2022/05/13 09:08:23;;;;;;;15.13;14.10;;;27.60;88.00;;;;;;4952005;29;20468;-78
2022/05/13 09:11:00;;;;;;;14.40;13.70;;;28.20;84.40;;;;;;4951853;29;20463;-78
2022/05/13 09:13:34;;;;;;;15.23;14.30;;;29.10;85.20;;;;;;4952336;29;20492;-79
2022/05/13 09:16:03;;;;;;;14.10;13.20;;;29.50;76.70;;;;;;4952278;29;20813;-80
2022/05/13 09:18:35;;;;;;;14.07;13.47;;;28.30;78.60;;;;;;4952008;29;20460;-79
2022/05/13 09:21:04;;;;;;;13.70;13.00;;;27.10;80.70;;;;;;4952057;29;20463;-80
2022/05/13 09:23:32;;;;;;;13.80;12.90;;;27.00;79.50;;;;;;4952193;29;20533;-80
2022/05/13 09:26:05;;;;;;;14.40;13.30;;;26.80;79.80;;;;;;4952049;29;20456;-81
2022/05/13 09:28:35;;;;;;;14.83;13.90;;;27.10;78.50;;;;;;4953508;29;20457;-80
2022/05/13 09:31:08;;;;;;;14.53;13.40;;;27.10;80.80;;;;;;4953086;29;20507;-81
2022/05/13 09:33:38;;;;;;;14.90;13.80;;;27.00;80.70;;;;;;4951940;29;20558;-81
2022/05/13 09:36:07;;;;;;;14.20;13.20;;;27.90;79.30;;;;;;4951507;29;20812;-81
2022/05/13 09:38:42;;;;;;;14.17;13.37;;;27.50;76.80;;;;;;4951449;28;20551;-80
2022/05/13 09:41:11;;;;;;;14.00;12.93;;;27.50;79.00;;;;;;4951508;29;20511;-81
2022/05/13 09:43:39;;;;;;;14.67;13.60;;;27.50;76.10;;;;;;4951425;29;20449;-81
2022/05/13 09:46:08;;;;;;;14.43;13.43;;;26.50;78.60;;;;;;4951388;29;20495;-81
2022/05/13 09:48:39;;;;;;;14.87;13.60;;;25.90;82.10;;;;;;4954615;28;20459;-81
2022/05/13 09:51:26;;;;;;;13.10;12.50;;;25.00;85.10;;;;;;4955046;29;20458;-80
2022/05/13 09:54:05;;;;;;;14.70;13.73;;;24.20;86.50;;;;;;4954911;29;20527;-80
2022/05/13 09:56:37;;;;;;;14.30;13.43;;;24.10;88.50;;;;;;4955381;28;20511;-80
2022/05/13 09:59:08;;;;;;;14.20;13.10;;;24.10;88.90;;;;;;4954588;29;20464;-80
2022/05/13 10:01:34;;;;;;;14.20;13.40;;;24.20;89.10;;;;;;4954419;28;20473;-80
2022/05/13 10:04:10;;;;;;;15.30;14.43;;;24.70;87.60;;;;;;4954476;29;20484;-80
2022/05/13 10:06:38;;;;;;;14.87;13.67;;;24.50;87.00;;;;;;4954570;29;20467;-80
2022/05/13 10:14:39;;;;;;;12.70;11.97;;;23.90;89.50;;;;;;4954816;29;20826;-80
2022/05/13 10:17:12;;;;;;;13.80;12.80;;;23.80;87.90;;;;;;4954493;29;20469;-79
2022/05/13 10:19:45;;;;;;;13.97;13.23;;;23.80;88.50;;;;;;4954577;29;20475;-80
2022/05/13 10:22:19;;;;;;;14.90;14.10;;;24.00;88.80;;;;;;4954939;29;20451;-80
2022/05/13 10:24:52;;;;;;;13.93;13.13;;;24.40;85.80;;;;;;4954984;29;20449;-80
2022/05/13 10:27:26;;;;;;;14.37;13.50;;;24.90;86.70;;;;;;4954572;29;20445;-80
2022/05/13 10:29:58;;;;;;;13.87;12.77;;;25.00;85.50;;;;;;4954304;29;20715;-78
2022/05/13 10:32:33;;;;;;;14.70;13.43;;;24.80;84.80;;;;;;4954290;29;20544;-80
2022/05/13 10:35:08;;;;;;;13.13;12.33;;;24.80;85.20;;;;;;4954619;29;20456;-78
2022/05/13 10:37:51;;;;;;;13.80;12.90;;;25.20;83.90;;;;;;4954185;29;20448;-78
2022/05/13 10:40:21;;;;;;;13.83;13.00;;;25.10;82.80;;;;;;4954262;29;20455;-77
2022/05/13 10:42:56;;;;;;;14.00;13.20;;;24.90;85.70;;;;;;4954021;29;20474;-80
2022/05/13 10:45:25;;;;;;;13.27;12.57;;;25.00;84.50;;;;;;4954759;29;20884;-79
2022/05/13 10:47:57;;;;;;;14.50;13.50;;;24.50;85.60;;;;;;4954214;28;20460;-84
2022/05/13 10:50:33;;;;;;;14.60;13.50;;;24.10;85.20;;;;;;4954448;29;20873;-81
2022/05/13 10:53:08;;;;;;;14.70;13.80;;;24.30;88.50;;;;;;4952622;29;20574;-81
2022/05/13 10:55:39;;;;;;;14.67;13.77;;;23.90;88.30;;;;;;4953663;29;20460;-81
2022/05/13 10:58:17;;;;;;;13.63;13.03;;;23.90;88.50;;;;;;4953780;28;20452;-79
2022/05/13 11:00:49;;;;;;;14.27;13.40;;;23.80;88.50;;;;;;4953726;28;20543;-79
2022/05/13 11:03:36;;;;;;;14.43;13.30;;;23.60;90.20;;;;;;4953960;28;20481;-80
2022/05/13 11:06:21;;;;;;;14.50;13.43;;;23.50;90.40;;;;;;4953790;29;20464;-79
2022/05/13 11:08:52;;;;;;;14.13;13.10;;;23.90;91.00;;;;;;4953921;29;20461;-78
2022/05/13 11:11:33;;;;;;;13.90;13.20;;;24.20;90.90;;;;;;4953960;29;20456;-79
2022/05/13 11:14:07;;;;;;;14.43;13.53;;;24.50;90.00;;;;;;4954109;29;20515;-79
2022/05/13 11:16:47;;;;;;;14.50;13.30;;;24.40;90.30;;;;;;4953643;29;20461;-79
2022/05/13 11:19:25;;;;;;;14.77;13.77;;;24.40;89.90;;;;;;4954007;28;20966;-81
2022/05/13 11:22:01;;;;;;;14.90;13.90;;;24.50;91.10;;;;;;4953585;29;20460;-79
2022/05/13 11:27:31;;;;;;;16.67;14.60;;;24.30;89.70;;;;;;4951527;29;20813;-81
2022/05/13 11:30:02;;;;;;;13.70;12.87;;;23.80;90.40;;;;;;4953376;29;20970;-80
2022/05/13 11:32:40;;;;;;;13.23;12.53;;;23.40;90.80;;;;;;4953508;29;20484;-80
2022/05/13 11:35:33;;;;;;;16.10;15.00;;;23.50;91.30;;;;;;4953300;29;20517;-81
2022/05/13 11:38:06;;;;;;;14.90;14.00;;;23.90;91.00;;;;;;4949494;28;20460;-80
2022/05/13 11:40:41;;;;;;;13.50;12.77;;;24.90;90.70;;;;;;4953355;29;20448;-81
2022/05/13 11:43:25;;;;;;;12.67;12.00;;;25.20;89.10;;;;;;4953295;29;20856;-81
2022/05/13 11:46:21;;;;;;;14.87;13.90;;;25.30;86.80;;;;;;4953038;28;20448;-81
2022/05/13 11:48:51;;;;;;;13.67;12.87;;;25.20;88.50;;;;;;4953270;28;20950;-81
2022/05/13 11:51:21;;;;;;;14.63;13.83;;;25.20;86.90;;;;;;4953029;29;20453;-81
2022/05/13 11:53:53;;;;;;;14.60;13.80;;;25.30;88.00;;;;;;4953004;29;20563;-81
2022/05/13 11:56:31;;;;;;;14.00;13.40;;;25.20;88.50;;;;;;4953002;29;20564;-80
2022/05/13 11:59:01;;;;;;;12.47;11.90;;;24.90;87.10;;;;;;4953161;29;20476;-81
2022/05/13 12:01:58;;;;;;;13.47;12.57;;;24.90;88.20;;;;;;4953060;28;20477;-81
2022/05/13 12:04:39;;;;;;;13.20;12.50;;;24.60;89.10;;;;;;4952428;28;20571;-82
2022/05/13 12:07:28;;;;;;;13.53;12.73;;;25.00;88.00;;;;;;4952703;29;20476;-81
2022/05/13 12:09:59;;;;;;;14.13;13.00;;;25.40;86.20;;;;;;4952655;28;21021;-78
2022/05/13 12:12:44;;;;;;;15.00;14.17;;;25.50;87.00;;;;;;4952604;29;20456;-81
2022/05/13 12:15:21;;;;;;;14.50;13.80;;;26.40;85.80;;;;;;4952580;29;20560;-80
2022/05/13 12:17:57;;;;;;;14.97;14.17;;;27.00;83.40;;;;;;4952043;29;20452;-82
2022/05/13 12:20:35;;;;;;;13.57;12.80;;;27.90;79.30;;;;;;4952307;29;20541;-81
2022/05/13 12:23:06;;;;;;;13.17;12.47;;;27.80;78.60;;;;;;4952816;29;20463;-82
2022/05/13 12:25:50;;;;;;;12.97;12.33;;;27.60;78.50;;;;;;4952335;29;20460;-82
2022/05/13 12:28:31;;;;;;;13.83;13.03;;;27.40;78.00;;;;;;4952255;29;20799;-81
2022/05/13 12:30:58;;;;;;;14.90;14.00;;;27.40;78.60;;;;;;4952490;29;20457;-82
2022/05/13 12:33:39;;;;;;;14.20;13.50;;;27.80;75.80;;;;;;4952102;29;20583;-82
2022/05/13 12:39:05;;;;;;;14.43;13.53;;;28.50;75.80;;;;;;4952685;29;20539;-78
2022/05/13 12:41:51;;;;;;;15.70;15.00;;;28.80;74.70;;;;;;4952492;29;20452;-80
2022/05/13 12:44:25;;;;;;;14.20;13.60;;;30.20;71.20;;;;;;4952001;29;20452;-81
2022/05/13 12:47:13;;;;;;;15.57;14.77;;;30.70;69.20;;;;;;4951724;29;20519;-81
2022/05/13 12:50:00;;;;;;;14.77;13.77;;;31.20;66.50;;;;;;4951778;29;20966;-83
2022/05/13 12:52:40;;;;;;;14.40;13.70;;;30.10;68.20;;;;;;4952386;29;20457;-80
2022/05/13 12:55:12;;;;;;;14.47;13.67;;;30.40;69.00;;;;;;4952193;29;20847;-81
2022/05/13 12:57:43;;;;;;;14.57;13.67;;;30.90;66.30;;;;;;4952053;29;20456;-83
2022/05/13 13:00:13;;;;;;;14.53;13.83;;;30.60;65.30;;;;;;4952203;29;20452;-83
2022/05/13 13:02:43;;;;;;;14.67;13.47;;;29.50;66.10;;;;;;4951643;28;20543;-83
2022/05/13 13:05:18;;;;;;;13.23;12.53;;;29.30;68.00;;;;;;4952026;29;20969;-83
2022/05/13 13:07:45;;;;;;;14.20;13.50;;;28.80;70.20;;;;;;4952567;28;20951;-82
2022/05/13 13:10:18;;;;;;;13.80;13.10;;;28.30;70.00;;;;;;4952290;29;20947;-81
2022/05/13 13:12:57;;;;;;;12.70;12.10;;;27.40;72.50;;;;;;4952418;29;20943;-80
2022/05/13 13:15:27;;;;;;;13.27;12.57;;;27.10;72.20;;;;;;4952705;29;20452;-80
2022/05/13 13:17:57;;;;;;;13.50;12.70;;;26.70;74.50;;;;;;4950685;29;20872;-80
2022/05/13 13:20:26;;;;;;;12.67;11.80;;;26.90;74.40;;;;;;4952164;29;20512;-80
2022/05/13 13:22:55;;;;;;;14.20;13.37;;;28.10;72.60;;;;;;4954018;28;20452;-80
2022/05/13 13:25:27;;;;;;;13.13;12.43;;;29.10;71.50;;;;;;4956423;29;20461;-80
2022/05/13 13:27:58;;;;;;;12.97;12.23;;;30.00;67.40;;;;;;4956101;29;20476;-81
2022/05/13 13:30:25;;;;;;;13.50;12.87;;;30.70;64.90;;;;;;4956225;29;20460;-81
2022/05/13 13:32:53;;;;;;;13.27;12.70;;;30.90;64.50;;;;;;4956010;29;20487;-81
2022/05/13 13:35:32;;;;;;;13.60;12.70;;;30.60;65.10;;;;;;4955777;29;20459;-81
2022/05/13 13:38:00;;;;;;;13.37;12.57;;;31.60;62.00;;;;;;4956315;29;20452;-80
2022/05/13 13:40:31;;;;;;;12.80;12.20;;;31.90;60.60;;;;;;4956333;28;20456;-80
2022/05/13 13:43:10;;;;;;;14.13;13.53;;;33.20;56.70;;;;;;4956356;29;20468;-81
2022/05/13 13:45:37;;;;;;;14.30;13.60;;;32.70;55.60;;;;;;4955952;29;20494;-82
2022/05/13 13:48:11;;;;;;;14.00;13.30;;;31.80;55.90;;;;;;4955954;29;20878;-82
2022/05/13 13:50:46;;;;;;;13.97;13.07;;;32.00;55.20;;;;;;4956239;29;20886;-82
2022/05/13 13:53:17;;;;;;;14.07;13.37;;;31.60;55.80;;;;;;4956027;28;20491;-82
2022/05/13 13:55:44;;;;;;;12.80;12.00;;;30.90;57.80;;;;;;4937331;29;20764;-83
2022/05/13 13:58:30;;;;;;;13.57;13.07;;;30.80;57.30;;;;;;4936875;29;20457;-84
2022/05/13 14:00:57;;;;;;;13.40;12.70;;;31.00;58.10;;;;;;4936626;29;20485;-85
2022/05/13 14:03:26;;;;;;;14.40;13.80;;;31.10;55.30;;;;;;4937600;29;20485;-87
2022/05/13 14:05:55;;;;;;;14.20;13.20;;;30.40;56.00;;;;;;4937878;29;20465;-84
2022/05/13 14:08:23;;;;;;;13.90;13.30;;;28.90;57.00;;;;;;4936548;29;20449;-84
2022/05/13 14:10:55;;;;;;;13.30;12.80;;;29.00;58.10;;;;;;4937066;29;21101;-84
2022/05/13 14:13:30;;;;;;;13.13;12.53;;;28.80;59.50;;;;;;4938419;29;20540;-86
2022/05/13 14:16:03;;;;;;;13.77;12.87;;;28.60;58.10;;;;;;4941471;29;20456;-86
2022/05/13 14:18:31;;;;;;;14.03;13.00;;;29.10;57.10;;;;;;4936936;29;20965;-83
2022/05/13 14:21:10;;;;;;;15.20;14.30;;;29.20;56.80;;;;;;4936711;29;20461;-83
2022/05/13 14:23:38;;;;;;;13.77;13.07;;;29.30;55.80;;;;;;4936655;29;20456;-84
2022/05/13 14:26:07;;;;;;;13.30;12.70;;;29.30;55.50;;;;;;4936784;29;20520;-83
2022/05/13 14:28:44;;;;;;;13.63;13.00;;;29.90;55.20;;;;;;4948955;29;20457;-83
2022/05/13 14:31:15;;;;;;;13.33;12.63;;;29.60;56.10;;;;;;4958488;28;20449;-85
2022/05/13 14:33:48;;;;;;;13.03;12.50;;;28.90;55.70;;;;;;4960166;28;20487;-84
2022/05/13 14:36:15;;;;;;;13.30;12.70;;;28.30;56.80;;;;;;4955750;29;20452;-84
2022/05/13 14:41:34;;;;;;;12.80;12.10;;;27.80;59.00;;;;;;4954304;29;20468;-84
2022/05/13 14:44:03;;;;;;;12.07;11.63;;;28.40;57.10;;;;;;4954686;29;20803;-84
2022/05/13 14:46:31;;;;;;;13.40;12.67;;;28.50;55.50;;;;;;4954554;28;20814;-83
2022/05/13 14:49:00;;;;;;;12.73;12.03;;;28.50;54.80;;;;;;4954827;28;20456;-85
2022/05/13 14:51:29;;;;;;;12.43;11.73;;;28.00;57.30;;;;;;4954409;29;20455;-83
2022/05/13 14:53:59;;;;;;;13.37;12.60;;;27.60;57.90;;;;;;4951754;29;20495;-83
2022/05/13 14:56:27;;;;;;;13.23;12.63;;;27.00;58.80;;;;;;4954105;28;20465;-83
2022/05/13 14:58:56;;;;;;;12.80;12.10;;;26.50;60.10;;;;;;4953668;29;20832;-84
2022/05/13 15:01:27;;;;;;;13.07;11.90;;;26.00;61.50;;;;;;4954541;28;20496;-84
2022/05/13 15:03:57;;;;;;;13.70;13.00;;;25.60;61.60;;;;;;4952942;28;20824;-85
2022/05/13 15:06:42;;;;;;;12.50;11.70;;;25.20;60.80;;;;;;4955703;28;20545;-83
2022/05/13 15:09:21;;;;;;;11.80;11.20;;;24.70;61.60;;;;;;4953859;28;20456;-85
2022/05/13 15:11:49;;;;;;;11.90;11.33;;;24.40;63.20;;;;;;4954517;28;20464;-83
2022/05/13 15:14:17;;;;;;;11.67;11.17;;;24.30;63.60;;;;;;4954144;28;20491;-83
2022/05/13 15:16:45;;;;;;;12.40;11.50;;;24.10;63.90;;;;;;4954525;28;20463;-84
2022/05/13 15:19:25;;;;;;;12.10;11.40;;;24.10;64.90;;;;;;4954206;28;20775;-84
2022/05/13 15:21:55;;;;;;;12.40;11.67;;;24.10;65.80;;;;;;4954000;28;20460;-85
2022/05/13 15:24:21;;;;;;;12.60;11.90;;;24.10;65.60;;;;;;4954041;28;20445;-86
2022/05/13 15:26:51;;;;;;;13.23;12.40;;;24.00;66.10;;;;;;4954235;28;20463;-86
2022/05/13 15:29:18;;;;;;;11.30;10.60;;;23.90;66.00;;;;;;4954029;28;20555;-85
2022/05/13 15:31:46;;;;;;;11.00;10.50;;;23.90;65.80;;;;;;4954401;28;20483;-85
2022/05/13 15:34:14;;;;;;;11.63;10.90;;;23.80;65.10;;;;;;4953826;28;20852;-79
2022/05/13 15:36:42;;;;;;;12.80;12.03;;;23.80;65.00;;;;;;4953552;28;20460;-81
2022/05/13 15:39:10;;;;;;;12.40;11.80;;;23.60;67.00;;;;;;4953241;28;20455;-80
2022/05/13 15:41:37;;;;;;;12.40;11.80;;;23.60;68.10;;;;;;4953315;28;20666;-81
2022/05/13 15:44:06;;;;;;;11.73;11.13;;;23.70;68.00;;;;;;4953357;28;20522;-83
2022/05/13 15:46:36;;;;;;;12.13;11.40;;;23.70;67.90;;;;;;4953242;28;21194;-81
2022/05/13 15:54:33;;;;;;;12.10;11.47;;;23.50;67.80;;;;;;4953588;29;20488;-81
2022/05/13 15:57:01;;;;;;;12.30;11.37;;;23.40;68.30;;;;;;4953971;28;20459;-82
2022/05/13 15:59:29;;;;;;;12.00;11.40;;;23.20;68.60;;;;;;4953857;28;20444;-82
2022/05/13 16:01:56;;;;;;;11.20;10.60;;;23.20;69.30;;;;;;4953264;28;20628;-82
2022/05/13 16:04:24;;;;;;;11.90;11.30;;;23.20;69.10;;;;;;4952903;28;20476;-82
2022/05/13 16:06:51;;;;;;;12.20;11.50;;;23.10;67.50;;;;;;4953167;28;20488;-82
2022/05/13 16:09:18;;;;;;;12.50;11.67;;;23.10;66.60;;;;;;4953476;28;20465;-83
2022/05/13 16:11:48;;;;;;;11.30;10.70;;;23.00;67.00;;;;;;4953800;28;20453;-83
2022/05/13 16:14:17;;;;;;;12.47;11.70;;;22.90;67.60;;;;;;4953534;28;20519;-81
2022/05/13 16:16:48;;;;;;;11.47;10.83;;;22.90;68.80;;;;;;4953659;28;20495;-81
2022/05/13 16:19:17;;;;;;;11.10;10.60;;;22.90;67.70;;;;;;4953609;28;20460;-81
2022/05/13 16:21:45;;;;;;;11.70;11.10;;;22.80;68.80;;;;;;4953289;28;20464;-81
2022/05/13 16:24:16;;;;;;;11.67;11.17;;;22.70;68.50;;;;;;4953230;28;20449;-81
2022/05/13 16:26:43;;;;;;;12.23;11.53;;;22.80;70.00;;;;;;4953301;28;20460;-82
2022/05/13 16:29:11;;;;;;;11.80;11.10;;;22.80;69.90;;;;;;4953197;28;20453;-80
2022/05/13 16:31:38;;;;;;;12.30;11.50;;;22.80;68.90;;;;;;4952973;28;20464;-81
2022/05/13 16:34:05;;;;;;;11.63;11.03;;;22.80;69.10;;;;;;4952930;28;20484;-81
2022/05/13 16:37:41;;;;;;;12.10;11.40;;;22.70;69.60;;;;;;4952816;28;20457;-81
2022/05/13 16:39:20;;;;;;;11.60;10.97;;;22.70;69.30;;;;;;4952281;29;20624;-81
2022/05/13 16:41:47;;;;;;;10.80;10.20;;;22.60;69.40;;;;;;4952263;28;20456;-86
2022/05/13 16:44:14;;;;;;;12.30;11.40;;;22.60;68.70;;;;;;4952109;28;20448;-73
2022/05/13 16:46:40;;;;;;;12.00;11.30;;;22.50;69.70;;;;;;4953110;28;20448;-79
2022/05/13 16:49:07;;;;;;;11.70;11.10;;;22.50;67.80;;;;;;4954289;28;20460;-79
2022/05/13 16:51:34;;;;;;;10.33;9.77;;;22.50;67.80;;;;;;4953568;28;20839;-79
2022/05/13 16:54:01;;;;;;;9.27;8.67;;;22.40;67.20;;;;;;4954222;29;20484;-79
2022/05/13 16:56:29;;;;;;;8.67;8.27;;;22.40;66.60;;;;;;4951761;28;20464;-80
2022/05/13 16:58:56;;;;;;;9.67;9.20;;;22.30;66.40;;;;;;4953077;29;20455;-79
2022/05/13 17:01:23;;;;;;;9.37;8.80;;;22.10;64.40;;;;;;4952462;28;20480;-80
2022/05/13 17:03:52;;;;;;;10.20;9.60;;;22.20;63.60;;;;;;4952634;29;20472;-80
2022/05/13 17:06:19;;;;;;;9.93;9.23;;;22.20;65.20;;;;;;4951577;29;20479;-82
2022/05/13 17:16:59;;;;;;;10.27;9.67;;;21.90;66.20;;;;;;4950848;29;20471;-80
2022/05/13 17:19:26;;;;;;;10.97;10.17;;;21.80;66.00;;;;;;4950926;29;20463;-80
2022/05/13 17:21:55;;;;;;;9.80;9.10;;;21.80;65.50;;;;;;4950467;29;20539;-80
2022/05/13 17:24:25;;;;;;;10.00;9.40;;;21.80;63.00;;;;;;4950455;29;20716;-80
2022/05/13 17:26:59;;;;;;;10.33;9.80;;;21.70;62.60;;;;;;4950427;29;20735;-81
2022/05/13 17:29:25;;;;;;;12.50;11.50;;;21.70;63.50;;;;;;4950114;29;20471;-80